Diana — C6DL2 — position and weather

sailwx.info

Track history (hours):
 
Tides and Currents Weather Stations Pressure Air Temp Water Temp Dewpoint Dewpoint Depression Visibility Wind Speed Wind Dir Waves Ship Positions

Diana

Last reported at 2018-Jan-12 15:00 UTC. Time now 2018-Jan-24 09:49 UTC.
Position S 32°54' E 151°46'.
Warning: this ship's position is 11 days out of date.

Length 170 m; draft 9.8 m.

Type: Cargo ship. MMSI: 311000708.

Date/timePositionNaut miles runAvg speedWind from/ knotsBaromVisibWave heightAir tempDewpointWater temp
2018-Jan-12 15:00S 32°54' E 151°46'0 0.0
2018-Jan-12 14:30S 32°54' E 151°46'0 0.0
2018-Jan-12 14:00S 32°54' E 151°46'0 0.0
2018-Jan-12 13:30S 32°54' E 151°46'0 0.0
2018-Jan-12 13:00S 32°54' E 151°46'0 0.0
2018-Jan-12 12:30S 32°54' E 151°46'0 0.0
2018-Jan-12 12:00S 32°54' E 151°46'0 0.0
2018-Jan-12 11:30S 32°54' E 151°46'0 0.0
2018-Jan-12 10:57S 32°54' E 151°46'0 0.0
2018-Jan-12 10:30S 32°54' E 151°46'0 0.0
2018-Jan-12 10:00S 32°54' E 151°46'0 0.0
2018-Jan-12 09:30S 32°54' E 151°46'0 0.0
2018-Jan-12 09:00S 32°54' E 151°46'0 0.0
2018-Jan-12 08:30S 32°54' E 151°46'0 0.0
2018-Jan-12 08:00S 32°54' E 151°46'0 0.0
2018-Jan-12 07:30S 32°54' E 151°46'0 0.0
2018-Jan-12 07:00S 32°54' E 151°46'0 0.0
2018-Jan-12 06:30S 32°54' E 151°46'0 0.0
2018-Jan-12 06:00S 32°54' E 151°46'0 0.0
2018-Jan-12 05:30S 32°54' E 151°46'0 0.0
2018-Jan-12 05:00S 32°54' E 151°46'0 0.0
2018-Jan-12 04:30S 32°54' E 151°46'0 0.0
2018-Jan-12 04:00S 32°54' E 151°46'0 0.0
2018-Jan-12 03:30S 32°54' E 151°46'0 0.0
2018-Jan-12 03:00S 32°54' E 151°46'0 0.0
2018-Jan-12 02:30S 32°54' E 151°46'0 0.0
2018-Jan-12 02:00S 32°54' E 151°46'0 0.0
2018-Jan-12 01:30S 32°54' E 151°46'0 0.0
2018-Jan-12 01:00S 32°54' E 151°46'0 0.0
2018-Jan-12 00:30S 32°54' E 151°46'0 0.0
2018-Jan-12 00:00S 32°54' E 151°46'0 0.0
2018-Jan-11 23:30S 32°54' E 151°46'0 0.0
2018-Jan-11 23:00S 32°54' E 151°46'0 0.0
2018-Jan-11 22:30S 32°54' E 151°46'0 0.0
2018-Jan-11 22:00S 32°54' E 151°46'0 0.0
2018-Jan-11 21:30S 32°54' E 151°46'0 0.0
2018-Jan-11 21:00S 32°54' E 151°46'0 0.0
2018-Jan-11 20:30S 32°54' E 151°46'0 0.0
2018-Jan-11 20:00S 32°54' E 151°46'0 0.0
2018-Jan-11 19:30S 32°54' E 151°46'0 0.0
2018-Jan-11 19:00S 32°54' E 151°46'0 0.0
2018-Jan-11 18:31S 32°54' E 151°46'0 0.4
2018-Jan-11 18:00S 32°54' E 151°46'2 3.7
2018-Jan-11 17:30S 32°55' E 151°48'4 7.2
2018-Jan-11 17:01S 32°56' E 151°52'4 8.0
2018-Jan-11 16:31S 32°60' E 151°55'5 9.2
2018-Jan-11 16:01S 33°02' E 151°59'5 9.5
2018-Jan-11 15:31S 33°05' E 152°04'510.7
2018-Jan-11 15:01S 33°07' E 152°10'5 9.7
2018-Jan-11 14:31S 33°10' E 152°15'1 1.9
2018-Jan-11 13:56S 33°09' E 152°14'1 1.8
2018-Jan-11 13:25S 33°08' E 152°14'1 1.9
2018-Jan-11 12:58S 33°07' E 152°14'1 2.0
2018-Jan-11 12:29S 33°06' E 152°14'1 1.8
2018-Jan-11 11:59S 33°05' E 152°14'1 1.6
2018-Jan-11 11:20S 33°04' E 152°14'1 1.7
2018-Jan-11 10:59S 33°04' E 152°14'1 1.7
2018-Jan-11 10:29S 33°03' E 152°14'1 1.7
2018-Jan-11 09:59S 33°02' E 152°14'0 0.8
2018-Jan-11 09:30S 33°02' E 152°14'2 3.7
2018-Jan-11 09:00S 33°03' E 152°12'2 4.1
2018-Jan-11 08:30S 33°04' E 152°11'2 4.0
2018-Jan-11 08:00S 33°06' E 152°09'2 4.3
2018-Jan-11 07:30S 33°07' E 152°07'2 4.7
2018-Jan-11 07:00S 33°10' E 152°06'3 5.0
2018-Jan-11 06:30S 33°12' E 152°04'3 5.0
2018-Jan-11 06:00S 33°14' E 152°03'2 4.7
2018-Jan-11 05:30S 33°16' E 152°02'13 0.6
2018-Jan-10 05:55S 33°11' E 152°16'2 4.7
2018-Jan-10 05:29S 33°10' E 152°17'3 4.5
2018-Jan-10 04:44S 33°07' E 152°19'1 4.5
2018-Jan-10 04:28S 33°05' E 152°20'2 4.2
2018-Jan-10 03:58S 33°04' E 152°21'2 4.2
2018-Jan-10 03:27S 33°02' E 152°22'2 5.3
2018-Jan-10 03:00S 32°60' E 152°23'3 6.1
2018-Jan-10 02:30S 32°57' E 152°25'3 5.4
2018-Jan-10 02:00S 32°55' E 152°27'3 5.7
2018-Jan-10 01:30S 32°52' E 152°29'2 4.1
2018-Jan-10 01:00S 32°51' E 152°30'2 4.4
2018-Jan-10 00:30S 32°49' E 152°32'3 6.7
2018-Jan-10 00:00S 32°46' E 152°34'612.7
2018-Jan-09 23:30S 32°41' E 152°39'612.6
2018-Jan-09 23:00S 32°36' E 152°43'713.0
2018-Jan-09 22:30S 32°31' E 152°47'18813.6
2018-Jan-09 08:44S 29°30' E 153°46'4014.5
2018-Jan-09 05:59S 28°51' E 153°57'814.5
2018-Jan-09 05:26S 28°44' E 153°59'614.5
2018-Jan-09 05:01S 28°38' E 153°60'715.0
2018-Jan-09 04:31S 28°30' E 154°00'714.9
2018-Jan-09 04:00S 28°23' E 154°01'815.5
2018-Jan-09 03:30S 28°15' E 154°01'815.4
2018-Jan-09 03:01S 28°07' E 154°02'714.8
2018-Jan-09 02:31S 27°60' E 154°03'713.8
2018-Jan-09 02:00S 27°53' E 154°03'2 3.8
2018-Jan-09 01:30S 27°51' E 154°03'1 2.1
2018-Jan-09 01:00S 27°52' E 154°03'1 2.0
2018-Jan-09 00:30S 27°53' E 154°04'0 0.2
2018-Jan-09 00:00S 27°53' E 154°04'2 3.5
2018-Jan-08 23:30S 27°51' E 154°03'2 3.4
2018-Jan-08 23:00S 27°50' E 154°03'2 3.2
2018-Jan-08 22:19S 27°47' E 154°03'1 3.1
2018-Jan-08 22:00S 27°47' E 154°02'2 3.0
2018-Jan-08 21:30S 27°45' E 154°01'21 3.0
2018-Jan-08 14:33S 27°27' E 153°50'0 3.5
2018-Jan-08 14:30S 27°26' E 153°50'4 3.5
2018-Jan-08 13:23S 27°23' E 153°49'4 3.7
2018-Jan-08 12:25S 27°19' E 153°48'410.2
2018-Jan-08 12:00S 27°15' E 153°47'914.9
2018-Jan-08 11:22S 27°06' E 153°46'614.2
2018-Jan-08 10:57S 26°60' E 153°44'613.3
2018-Jan-08 10:28S 26°57' E 153°38'613.4
2018-Jan-08 10:00S 26°54' E 153°32'913.2
2018-Jan-08 09:18S 26°49' E 153°23'412.8
2018-Jan-08 08:59S 26°47' E 153°19'612.9
2018-Jan-08 08:30S 26°44' E 153°13'3 4.7
2018-Jan-08 07:52S 26°46' E 153°11'411.9
2018-Jan-08 07:30S 26°50' E 153°09'613.2
2018-Jan-08 07:00S 26°56' E 153°12'713.7
2018-Jan-08 06:30S 27°02' E 153°15'612.6
2018-Jan-08 06:00S 27°07' E 153°20'611.5
2018-Jan-08 05:30S 27°12' E 153°18'612.7
2018-Jan-08 05:00S 27°17' E 153°14'611.8
2018-Jan-08 04:30S 27°22' E 153°10'3 5.9
2018-Jan-08 04:00S 27°25' E 153°09'0 0.0
2018-Jan-08 02:27S 27°25' E 153°09'0 0.0
2018-Jan-08 01:57S 27°25' E 153°09'0 0.0
2018-Jan-08 01:27S 27°25' E 153°09'0 0.0
2018-Jan-08 01:00S 27°25' E 153°09'0 0.0
2018-Jan-08 00:30S 27°25' E 153°09'0 0.0
2018-Jan-08 00:00S 27°25' E 153°09'0 0.0
2018-Jan-07 23:30S 27°25' E 153°09'0 0.0
2018-Jan-07 23:00S 27°25' E 153°09'0 0.0
2018-Jan-07 22:30S 27°25' E 153°09'0 0.0
2018-Jan-07 21:24S 27°25' E 153°09'0 0.0
2018-Jan-07 21:00S 27°25' E 153°09'0 0.0
2018-Jan-07 20:30S 27°25' E 153°09'0 0.0
2018-Jan-07 20:00S 27°25' E 153°09'0 0.0
2018-Jan-07 19:12S 27°25' E 153°09'0 0.0
2018-Jan-07 18:57S 27°25' E 153°09'0 0.0
2018-Jan-07 18:27S 27°25' E 153°09'0 0.0
2018-Jan-07 18:00S 27°25' E 153°09'0 0.0
2018-Jan-07 17:30S 27°25' E 153°09'0 0.0
2018-Jan-07 17:00S 27°25' E 153°09'0 0.0
2018-Jan-07 16:30S 27°25' E 153°09'0 0.0
2018-Jan-07 16:00S 27°25' E 153°09'0 0.0
2018-Jan-07 15:30S 27°25' E 153°09'0 0.0
2018-Jan-07 15:00S 27°25' E 153°09'0 0.0
2018-Jan-07 14:30S 27°25' E 153°09'0 0.0
2018-Jan-07 14:00S 27°25' E 153°09'0 0.0
2018-Jan-07 13:30S 27°25' E 153°09'0 0.0
2018-Jan-07 12:54S 27°25' E 153°09'0 0.0
2018-Jan-07 12:27S 27°25' E 153°09'0 0.0
2018-Jan-07 11:57S 27°25' E 153°09'0 0.0
2018-Jan-07 11:24S 27°25' E 153°09'0 0.0
2018-Jan-07 10:51S 27°25' E 153°09'0 0.0
2018-Jan-07 10:27S 27°25' E 153°09'0 0.0
2018-Jan-07 09:57S 27°25' E 153°09'0 0.0
2018-Jan-07 09:27S 27°25' E 153°09'0 0.0
2018-Jan-07 08:57S 27°25' E 153°09'0 0.0
2018-Jan-07 08:30S 27°25' E 153°09'0 0.0
2018-Jan-07 07:39S 27°25' E 153°09'0 0.0
2018-Jan-07 07:30S 27°25' E 153°09'0 0.0
2018-Jan-07 06:57S 27°25' E 153°09'0 0.0
2018-Jan-07 05:36S 27°25' E 153°09'0 0.0
2018-Jan-07 05:27S 27°25' E 153°09'0 0.0
2018-Jan-07 04:57S 27°25' E 153°09'0 0.0
2018-Jan-07 04:21S 27°25' E 153°09'0 0.0
2018-Jan-07 04:00S 27°25' E 153°09'0 0.0
2018-Jan-07 02:24S 27°25' E 153°09'0 0.0
2018-Jan-07 02:00S 27°25' E 153°09'0 0.0
2018-Jan-06 21:42S 27°25' E 153°09'0 0.0
2018-Jan-06 21:30S 27°25' E 153°09'0 0.0
2018-Jan-06 21:00S 27°25' E 153°09'0 0.0
2018-Jan-06 20:30S 27°25' E 153°09'0 0.0
2018-Jan-06 20:00S 27°25' E 153°09'0 0.0
2018-Jan-06 19:30S 27°25' E 153°09'0 0.0
2018-Jan-06 19:00S 27°25' E 153°09'0 0.0
2018-Jan-06 18:30S 27°25' E 153°09'0 0.0
2018-Jan-06 18:00S 27°25' E 153°09'0 0.0
2018-Jan-06 17:30S 27°25' E 153°09'0 0.0
2018-Jan-06 17:00S 27°25' E 153°09'0 0.0
2018-Jan-06 16:30S 27°25' E 153°09'0 0.0
2018-Jan-06 16:00S 27°25' E 153°09'0 0.0
2018-Jan-06 15:24S 27°25' E 153°09'0 0.0
2018-Jan-06 15:00S 27°25' E 153°09'0 0.0
2018-Jan-06 14:27S 27°25' E 153°09'0 0.0
2018-Jan-06 14:00S 27°25' E 153°09'0 0.0
2018-Jan-06 13:27S 27°25' E 153°09'0 0.0
2018-Jan-06 11:45S 27°25' E 153°09'0 0.0
2018-Jan-06 11:30S 27°25' E 153°09'0 0.0
2018-Jan-06 10:12S 27°25' E 153°09'0 0.0
2018-Jan-06 10:00S 27°25' E 153°09'0 0.0
2018-Jan-06 09:30S 27°25' E 153°09'0 0.0
2018-Jan-06 09:00S 27°25' E 153°09'0 0.0
2018-Jan-06 08:30S 27°25' E 153°09'0 0.0
2018-Jan-06 08:00S 27°25' E 153°09'0 0.0
2018-Jan-06 07:18S 27°25' E 153°09'0 0.0
2018-Jan-05 20:39S 27°25' E 153°09'0 0.0
2018-Jan-05 20:24S 27°25' E 153°09'0 0.0
2018-Jan-05 19:18S 27°25' E 153°09'0 0.0
2018-Jan-05 18:48S 27°25' E 153°09'0 0.0
2018-Jan-05 18:15S 27°25' E 153°09'0 0.0
2018-Jan-05 17:57S 27°25' E 153°09'0 0.0
2018-Jan-05 17:27S 27°25' E 153°09'0 0.0
2018-Jan-05 16:57S 27°25' E 153°09'0 0.0
2018-Jan-05 16:27S 27°25' E 153°09'0 0.0
2018-Jan-05 15:21S 27°25' E 153°09'0 0.0
2018-Jan-05 00:24S 27°25' E 153°09'0 0.0
2018-Jan-04 23:57S 27°25' E 153°09'0 0.0
2018-Jan-04 23:24S 27°25' E 153°09'0 0.0
2018-Jan-04 21:42S 27°25' E 153°09'0 0.0
2018-Jan-04 21:12S 27°25' E 153°09'0 0.0
2018-Jan-04 20:57S 27°25' E 153°09'0 0.0
2018-Jan-04 20:30S 27°25' E 153°09'0 0.0
2018-Jan-04 20:00S 27°25' E 153°09'0 0.0
2018-Jan-04 19:30S 27°25' E 153°09'0 0.0
2018-Jan-04 19:00S 27°25' E 153°09'0 0.0
2018-Jan-04 18:27S 27°25' E 153°09'0 0.0
2018-Jan-04 17:57S 27°25' E 153°09'0 0.0
2018-Jan-04 17:30S 27°25' E 153°09'0 0.0
2018-Jan-04 17:00S 27°25' E 153°09'0 0.0
2018-Jan-04 16:30S 27°25' E 153°09'0 0.0
2018-Jan-04 15:57S 27°25' E 153°09'0 0.0
2018-Jan-04 15:30S 27°25' E 153°09'0 0.0
2018-Jan-04 15:00S 27°25' E 153°09'0 0.0
2018-Jan-04 14:27S 27°25' E 153°09'0 0.0
2018-Jan-04 13:57S 27°25' E 153°09'0 0.0
2018-Jan-04 13:15S 27°25' E 153°09'0 0.3
2018-Jan-04 12:49S 27°25' E 153°09'2 5.1
2018-Jan-04 12:30S 27°23' E 153°09'3 6.8
2018-Jan-04 12:00S 27°20' E 153°11'4 7.4
2018-Jan-04 11:30S 27°17' E 153°14'3 3.2
2018-Jan-04 10:42S 27°16' E 153°16'0 1.0
2018-Jan-04 10:30S 27°16' E 153°16'811.2
2018-Jan-04 09:49S 27°10' E 153°21'412.0
2018-Jan-04 09:30S 27°06' E 153°19'711.0
2018-Jan-04 08:52S 27°01' E 153°15'510.9
2018-Jan-04 08:25S 26°56' E 153°12'510.6
2018-Jan-04 08:00S 26°53' E 153°10'  
Track history (hours):
 
Tides and Currents Weather Stations Pressure Air Temp Water Temp Dewpoint Dewpoint Depression Visibility Wind Speed Wind Dir Waves Ship Positions

Diana

Last reported at 2018-Jan-12 15:00 UTC. Time now 2018-Jan-24 09:49 UTC.
Position S 32°54' E 151°46'.
Warning: this ship's position is 11 days out of date.

Length 170 m; draft 9.8 m.

Type: Cargo ship. MMSI: 311000708.

Date/timePositionNaut miles runAvg speedWind from/ knotsBaromVisibWave heightAir tempDewpointWater temp
2018-Jan-12 15:00S 32°54' E 151°46'0 0.0
2018-Jan-12 14:30S 32°54' E 151°46'0 0.0
2018-Jan-12 14:00S 32°54' E 151°46'0 0.0
2018-Jan-12 13:30S 32°54' E 151°46'0 0.0
2018-Jan-12 13:00S 32°54' E 151°46'0 0.0
2018-Jan-12 12:30S 32°54' E 151°46'0 0.0
2018-Jan-12 12:00S 32°54' E 151°46'0 0.0
2018-Jan-12 11:30S 32°54' E 151°46'0 0.0
2018-Jan-12 10:57S 32°54' E 151°46'0 0.0
2018-Jan-12 10:30S 32°54' E 151°46'0 0.0
2018-Jan-12 10:00S 32°54' E 151°46'0 0.0
2018-Jan-12 09:30S 32°54' E 151°46'0 0.0
2018-Jan-12 09:00S 32°54' E 151°46'0 0.0
2018-Jan-12 08:30S 32°54' E 151°46'0 0.0
2018-Jan-12 08:00S 32°54' E 151°46'0 0.0
2018-Jan-12 07:30S 32°54' E 151°46'0 0.0
2018-Jan-12 07:00S 32°54' E 151°46'0 0.0
2018-Jan-12 06:30S 32°54' E 151°46'0 0.0
2018-Jan-12 06:00S 32°54' E 151°46'0 0.0
2018-Jan-12 05:30S 32°54' E 151°46'0 0.0
2018-Jan-12 05:00S 32°54' E 151°46'0 0.0
2018-Jan-12 04:30S 32°54' E 151°46'0 0.0
2018-Jan-12 04:00S 32°54' E 151°46'0 0.0
2018-Jan-12 03:30S 32°54' E 151°46'0 0.0
2018-Jan-12 03:00S 32°54' E 151°46'0 0.0
2018-Jan-12 02:30S 32°54' E 151°46'0 0.0
2018-Jan-12 02:00S 32°54' E 151°46'0 0.0
2018-Jan-12 01:30S 32°54' E 151°46'0 0.0
2018-Jan-12 01:00S 32°54' E 151°46'0 0.0
2018-Jan-12 00:30S 32°54' E 151°46'0 0.0
2018-Jan-12 00:00S 32°54' E 151°46'0 0.0
2018-Jan-11 23:30S 32°54' E 151°46'0 0.0
2018-Jan-11 23:00S 32°54' E 151°46'0 0.0
2018-Jan-11 22:30S 32°54' E 151°46'0 0.0
2018-Jan-11 22:00S 32°54' E 151°46'0 0.0
2018-Jan-11 21:30S 32°54' E 151°46'0 0.0
2018-Jan-11 21:00S 32°54' E 151°46'0 0.0
2018-Jan-11 20:30S 32°54' E 151°46'0 0.0
2018-Jan-11 20:00S 32°54' E 151°46'0 0.0
2018-Jan-11 19:30S 32°54' E 151°46'0 0.0
2018-Jan-11 19:00S 32°54' E 151°46'0 0.0
2018-Jan-11 18:31S 32°54' E 151°46'0 0.4
2018-Jan-11 18:00S 32°54' E 151°46'2 3.7
2018-Jan-11 17:30S 32°55' E 151°48'4 7.2
2018-Jan-11 17:01S 32°56' E 151°52'4 8.0
2018-Jan-11 16:31S 32°60' E 151°55'5 9.2
2018-Jan-11 16:01S 33°02' E 151°59'5 9.5
2018-Jan-11 15:31S 33°05' E 152°04'510.7
2018-Jan-11 15:01S 33°07' E 152°10'5 9.7
2018-Jan-11 14:31S 33°10' E 152°15'1 1.9
2018-Jan-11 13:56S 33°09' E 152°14'1 1.8
2018-Jan-11 13:25S 33°08' E 152°14'1 1.9
2018-Jan-11 12:58S 33°07' E 152°14'1 2.0
2018-Jan-11 12:29S 33°06' E 152°14'1 1.8
2018-Jan-11 11:59S 33°05' E 152°14'1 1.6
2018-Jan-11 11:20S 33°04' E 152°14'1 1.7
2018-Jan-11 10:59S 33°04' E 152°14'1 1.7
2018-Jan-11 10:29S 33°03' E 152°14'1 1.7
2018-Jan-11 09:59S 33°02' E 152°14'0 0.8
2018-Jan-11 09:30S 33°02' E 152°14'2 3.7
2018-Jan-11 09:00S 33°03' E 152°12'2 4.1
2018-Jan-11 08:30S 33°04' E 152°11'2 4.0
2018-Jan-11 08:00S 33°06' E 152°09'2 4.3
2018-Jan-11 07:30S 33°07' E 152°07'2 4.7
2018-Jan-11 07:00S 33°10' E 152°06'3 5.0
2018-Jan-11 06:30S 33°12' E 152°04'3 5.0
2018-Jan-11 06:00S 33°14' E 152°03'2 4.7
2018-Jan-11 05:30S 33°16' E 152°02'13 0.6
2018-Jan-10 05:55S 33°11' E 152°16'2 4.7
2018-Jan-10 05:29S 33°10' E 152°17'3 4.5
2018-Jan-10 04:44S 33°07' E 152°19'1 4.5
2018-Jan-10 04:28S 33°05' E 152°20'2 4.2
2018-Jan-10 03:58S 33°04' E 152°21'2 4.2
2018-Jan-10 03:27S 33°02' E 152°22'2 5.3
2018-Jan-10 03:00S 32°60' E 152°23'3 6.1
2018-Jan-10 02:30S 32°57' E 152°25'3 5.4
2018-Jan-10 02:00S 32°55' E 152°27'3 5.7
2018-Jan-10 01:30S 32°52' E 152°29'2 4.1
2018-Jan-10 01:00S 32°51' E 152°30'2 4.4
2018-Jan-10 00:30S 32°49' E 152°32'3 6.7
2018-Jan-10 00:00S 32°46' E 152°34'612.7
2018-Jan-09 23:30S 32°41' E 152°39'612.6
2018-Jan-09 23:00S 32°36' E 152°43'713.0
2018-Jan-09 22:30S 32°31' E 152°47'18813.6
2018-Jan-09 08:44S 29°30' E 153°46'4014.5
2018-Jan-09 05:59S 28°51' E 153°57'814.5
2018-Jan-09 05:26S 28°44' E 153°59'614.5
2018-Jan-09 05:01S 28°38' E 153°60'715.0
2018-Jan-09 04:31S 28°30' E 154°00'714.9
2018-Jan-09 04:00S 28°23' E 154°01'815.5
2018-Jan-09 03:30S 28°15' E 154°01'815.4
2018-Jan-09 03:01S 28°07' E 154°02'714.8
2018-Jan-09 02:31S 27°60' E 154°03'713.8
2018-Jan-09 02:00S 27°53' E 154°03'2 3.8
2018-Jan-09 01:30S 27°51' E 154°03'1 2.1
2018-Jan-09 01:00S 27°52' E 154°03'1 2.0
2018-Jan-09 00:30S 27°53' E 154°04'0 0.2
2018-Jan-09 00:00S 27°53' E 154°04'2 3.5
2018-Jan-08 23:30S 27°51' E 154°03'2 3.4
2018-Jan-08 23:00S 27°50' E 154°03'2 3.2
2018-Jan-08 22:19S 27°47' E 154°03'1 3.1
2018-Jan-08 22:00S 27°47' E 154°02'2 3.0
2018-Jan-08 21:30S 27°45' E 154°01'21 3.0
2018-Jan-08 14:33S 27°27' E 153°50'0 3.5
2018-Jan-08 14:30S 27°26' E 153°50'4 3.5
2018-Jan-08 13:23S 27°23' E 153°49'4 3.7
2018-Jan-08 12:25S 27°19' E 153°48'410.2
2018-Jan-08 12:00S 27°15' E 153°47'914.9
2018-Jan-08 11:22S 27°06' E 153°46'614.2
2018-Jan-08 10:57S 26°60' E 153°44'613.3
2018-Jan-08 10:28S 26°57' E 153°38'613.4
2018-Jan-08 10:00S 26°54' E 153°32'913.2
2018-Jan-08 09:18S 26°49' E 153°23'412.8
2018-Jan-08 08:59S 26°47' E 153°19'612.9
2018-Jan-08 08:30S 26°44' E 153°13'3 4.7
2018-Jan-08 07:52S 26°46' E 153°11'411.9
2018-Jan-08 07:30S 26°50' E 153°09'613.2
2018-Jan-08 07:00S 26°56' E 153°12'713.7
2018-Jan-08 06:30S 27°02' E 153°15'612.6
2018-Jan-08 06:00S 27°07' E 153°20'611.5
2018-Jan-08 05:30S 27°12' E 153°18'612.7
2018-Jan-08 05:00S 27°17' E 153°14'611.8
2018-Jan-08 04:30S 27°22' E 153°10'3 5.9
2018-Jan-08 04:00S 27°25' E 153°09'0 0.0
2018-Jan-08 02:27S 27°25' E 153°09'0 0.0
2018-Jan-08 01:57S 27°25' E 153°09'0 0.0
2018-Jan-08 01:27S 27°25' E 153°09'0 0.0
2018-Jan-08 01:00S 27°25' E 153°09'0 0.0
2018-Jan-08 00:30S 27°25' E 153°09'0 0.0
2018-Jan-08 00:00S 27°25' E 153°09'0 0.0
2018-Jan-07 23:30S 27°25' E 153°09'0 0.0
2018-Jan-07 23:00S 27°25' E 153°09'0 0.0
2018-Jan-07 22:30S 27°25' E 153°09'0 0.0
2018-Jan-07 21:24S 27°25' E 153°09'0 0.0
2018-Jan-07 21:00S 27°25' E 153°09'0 0.0
2018-Jan-07 20:30S 27°25' E 153°09'0 0.0
2018-Jan-07 20:00S 27°25' E 153°09'0 0.0
2018-Jan-07 19:12S 27°25' E 153°09'0 0.0
2018-Jan-07 18:57S 27°25' E 153°09'0 0.0
2018-Jan-07 18:27S 27°25' E 153°09'0 0.0
2018-Jan-07 18:00S 27°25' E 153°09'0 0.0
2018-Jan-07 17:30S 27°25' E 153°09'0 0.0
2018-Jan-07 17:00S 27°25' E 153°09'0 0.0
2018-Jan-07 16:30S 27°25' E 153°09'0 0.0
2018-Jan-07 16:00S 27°25' E 153°09'0 0.0
2018-Jan-07 15:30S 27°25' E 153°09'0 0.0
2018-Jan-07 15:00S 27°25' E 153°09'0 0.0
2018-Jan-07 14:30S 27°25' E 153°09'0 0.0
2018-Jan-07 14:00S 27°25' E 153°09'0 0.0
2018-Jan-07 13:30S 27°25' E 153°09'0 0.0
2018-Jan-07 12:54S 27°25' E 153°09'0 0.0
2018-Jan-07 12:27S 27°25' E 153°09'0 0.0
2018-Jan-07 11:57S 27°25' E 153°09'0 0.0
2018-Jan-07 11:24S 27°25' E 153°09'0 0.0
2018-Jan-07 10:51S 27°25' E 153°09'0 0.0
2018-Jan-07 10:27S 27°25' E 153°09'0 0.0
2018-Jan-07 09:57S 27°25' E 153°09'0 0.0
2018-Jan-07 09:27S 27°25' E 153°09'0 0.0
2018-Jan-07 08:57S 27°25' E 153°09'0 0.0
2018-Jan-07 08:30S 27°25' E 153°09'0 0.0
2018-Jan-07 07:39S 27°25' E 153°09'0 0.0
2018-Jan-07 07:30S 27°25' E 153°09'0 0.0
2018-Jan-07 06:57S 27°25' E 153°09'0 0.0
2018-Jan-07 05:36S 27°25' E 153°09'0 0.0
2018-Jan-07 05:27S 27°25' E 153°09'0 0.0
2018-Jan-07 04:57S 27°25' E 153°09'0 0.0
2018-Jan-07 04:21S 27°25' E 153°09'0 0.0
2018-Jan-07 04:00S 27°25' E 153°09'0 0.0
2018-Jan-07 02:24S 27°25' E 153°09'0 0.0
2018-Jan-07 02:00S 27°25' E 153°09'0 0.0
2018-Jan-06 21:42S 27°25' E 153°09'0 0.0
2018-Jan-06 21:30S 27°25' E 153°09'0 0.0
2018-Jan-06 21:00S 27°25' E 153°09'0 0.0
2018-Jan-06 20:30S 27°25' E 153°09'0 0.0
2018-Jan-06 20:00S 27°25' E 153°09'0 0.0
2018-Jan-06 19:30S 27°25' E 153°09'0 0.0
2018-Jan-06 19:00S 27°25' E 153°09'0 0.0
2018-Jan-06 18:30S 27°25' E 153°09'0 0.0
2018-Jan-06 18:00S 27°25' E 153°09'0 0.0
2018-Jan-06 17:30S 27°25' E 153°09'0 0.0
2018-Jan-06 17:00S 27°25' E 153°09'0 0.0
2018-Jan-06 16:30S 27°25' E 153°09'0 0.0
2018-Jan-06 16:00S 27°25' E 153°09'0 0.0
2018-Jan-06 15:24S 27°25' E 153°09'0 0.0
2018-Jan-06 15:00S 27°25' E 153°09'0 0.0
2018-Jan-06 14:27S 27°25' E 153°09'0 0.0
2018-Jan-06 14:00S 27°25' E 153°09'0 0.0
2018-Jan-06 13:27S 27°25' E 153°09'0 0.0
2018-Jan-06 11:45S 27°25' E 153°09'0 0.0
2018-Jan-06 11:30S 27°25' E 153°09'0 0.0
2018-Jan-06 10:12S 27°25' E 153°09'0 0.0
2018-Jan-06 10:00S 27°25' E 153°09'0 0.0
2018-Jan-06 09:30S 27°25' E 153°09'0 0.0
2018-Jan-06 09:00S 27°25' E 153°09'0 0.0
2018-Jan-06 08:30S 27°25' E 153°09'0 0.0
2018-Jan-06 08:00S 27°25' E 153°09'0 0.0
2018-Jan-06 07:18S 27°25' E 153°09'0 0.0
2018-Jan-05 20:39S 27°25' E 153°09'0 0.0
2018-Jan-05 20:24S 27°25' E 153°09'0 0.0
2018-Jan-05 19:18S 27°25' E 153°09'0 0.0
2018-Jan-05 18:48S 27°25' E 153°09'0 0.0
2018-Jan-05 18:15S 27°25' E 153°09'0 0.0
2018-Jan-05 17:57S 27°25' E 153°09'0 0.0
2018-Jan-05 17:27S 27°25' E 153°09'0 0.0
2018-Jan-05 16:57S 27°25' E 153°09'0 0.0
2018-Jan-05 16:27S 27°25' E 153°09'0 0.0
2018-Jan-05 15:21S 27°25' E 153°09'0 0.0
2018-Jan-05 00:24S 27°25' E 153°09'0 0.0
2018-Jan-04 23:57S 27°25' E 153°09'0 0.0
2018-Jan-04 23:24S 27°25' E 153°09'0 0.0
2018-Jan-04 21:42S 27°25' E 153°09'0 0.0
2018-Jan-04 21:12S 27°25' E 153°09'0 0.0
2018-Jan-04 20:57S 27°25' E 153°09'0 0.0
2018-Jan-04 20:30S 27°25' E 153°09'0 0.0
2018-Jan-04 20:00S 27°25' E 153°09'0 0.0
2018-Jan-04 19:30S 27°25' E 153°09'0 0.0
2018-Jan-04 19:00S 27°25' E 153°09'0 0.0
2018-Jan-04 18:27S 27°25' E 153°09'0 0.0
2018-Jan-04 17:57S 27°25' E 153°09'0 0.0
2018-Jan-04 17:30S 27°25' E 153°09'0 0.0
2018-Jan-04 17:00S 27°25' E 153°09'0 0.0
2018-Jan-04 16:30S 27°25' E 153°09'0 0.0
2018-Jan-04 15:57S 27°25' E 153°09'0 0.0
2018-Jan-04 15:30S 27°25' E 153°09'0 0.0
2018-Jan-04 15:00S 27°25' E 153°09'0 0.0
2018-Jan-04 14:27S 27°25' E 153°09'0 0.0
2018-Jan-04 13:57S 27°25' E 153°09'0 0.0
2018-Jan-04 13:15S 27°25' E 153°09'0 0.3
2018-Jan-04 12:49S 27°25' E 153°09'2 5.1
2018-Jan-04 12:30S 27°23' E 153°09'3 6.8
2018-Jan-04 12:00S 27°20' E 153°11'4 7.4
2018-Jan-04 11:30S 27°17' E 153°14'3 3.2
2018-Jan-04 10:42S 27°16' E 153°16'0 1.0
2018-Jan-04 10:30S 27°16' E 153°16'811.2
2018-Jan-04 09:49S 27°10' E 153°21'412.0
2018-Jan-04 09:30S 27°06' E 153°19'711.0
2018-Jan-04 08:52S 27°01' E 153°15'510.9
2018-Jan-04 08:25S 26°56' E 153°12'510.6
2018-Jan-04 08:00S 26°53' E 153°10'  

Dump ship's entire track history